Wetterdaten: aktuell Freitag, 08.12.2023 17:45
Datum Zeit Temp. A. Feuchte A. Luftdruck Regen Wind Richtung Richtung Taupunkt Windchill Windben
08.12.2023 17:45 -4,6 C 92 % 1015,0 hPa 0,2 l/m 3,1 km/h (1 Bft) W-SW 250 -5,7 C -4,6 C 8,0 km/h (2 Bft)
08.12.2023 17:40 -4,6 C 92 % 1015,0 hPa 0,0 l/m 3,1 km/h (1 Bft) S-SW 200 -5,7 C -4,6 C 6,4 km/h (2 Bft)
08.12.2023 17:35 -4,6 C 92 % 1014,9 hPa 0,0 l/m 3,1 km/h (1 Bft) S-SW 201 -5,7 C -4,6 C 6,4 km/h (2 Bft)
08.12.2023 17:30 -4,6 C 92 % 1015,0 hPa 0,0 l/m 4,9 km/h (1 Bft) W-SW 237 -5,7 C -4,6 C 11,3 km/h (2 Bft)
08.12.2023 17:25 -4,7 C 92 % 1015,0 hPa 0,0 l/m 3,0 km/h (1 Bft) S 185 -5,8 C -4,7 C 11,3 km/h (2 Bft)
08.12.2023 17:20 -4,7 C 92 % 1015,0 hPa 0,0 l/m 4,2 km/h (1 Bft) S 190 -5,8 C -4,7 C 11,3 km/h (2 Bft)
08.12.2023 17:15 -4,7 C 92 % 1014,8 hPa 0,0 l/m 5,7 km/h (1 Bft) S-SO 166 -5,8 C -4,7 C 11,3 km/h (2 Bft)
08.12.2023 17:10 -4,7 C 92 % 1014,8 hPa 0,2 l/m 8,7 km/h (2 Bft) SW 215 -5,8 C -7,3 C 17,7 km/h (3 Bft)
08.12.2023 17:05 -4,8 C 92 % 1014,8 hPa 0,0 l/m 5,5 km/h (1 Bft) S-SW 198 -5,9 C -4,8 C 14,5 km/h (3 Bft)
08.12.2023 17:00 -4,8 C 92 % 1014,7 hPa 0,0 l/m 5,0 km/h (1 Bft) S 169 -5,9 C -4,8 C 14,5 km/h (3 Bft)
08.12.2023 16:55 -4,8 C 91 % 1014,7 hPa 0,0 l/m 4,4 km/h (1 Bft) S 173 -6,0 C -4,8 C 12,9 km/h (3 Bft)
08.12.2023 16:50 -4,9 C 91 % 1014,8 hPa 0,0 l/m 4,5 km/h (1 Bft) S-SW 196 -6,1 C -4,9 C 11,3 km/h (2 Bft)
08.12.2023 16:45 -4,8 C 91 % 1014,8 hPa 0,0 l/m 4,2 km/h (1 Bft) S 184 -6,0 C -4,8 C 17,7 km/h (3 Bft)
08.12.2023 16:40 -4,8 C 91 % 1014,9 hPa 0,0 l/m 3,0 km/h (1 Bft) S-SW 198 -6,0 C -4,8 C 9,7 km/h (2 Bft)
08.12.2023 16:35 -4,8 C 91 % 1014,9 hPa 0,0 l/m 2,9 km/h (1 Bft) S-SO 163 -6,0 C -4,8 C 8,0 km/h (2 Bft)
08.12.2023 16:30 -4,8 C 91 % 1014,8 hPa 0,0 l/m 1,7 km/h (1 Bft) S 190 -6,0 C -4,8 C 8,0 km/h (2 Bft)
08.12.2023 16:25 -4,8 C 91 % 1014,8 hPa 0,0 l/m 2,6 km/h (1 Bft) S 189 -6,0 C -4,8 C 8,0 km/h (2 Bft)
08.12.2023 16:20 -4,8 C 91 % 1014,7 hPa 0,0 l/m 2,6 km/h (1 Bft) S 190 -6,0 C -4,8 C 8,0 km/h (2 Bft)
08.12.2023 16:15 -4,8 C 91 % 1014,8 hPa 0,0 l/m 3,0 km/h (1 Bft) S 188 -6,0 C -4,8 C 9,7 km/h (2 Bft)
08.12.2023 16:10 -4,7 C 91 % 1014,7 hPa 0,0 l/m 2,4 km/h (1 Bft) SW 229 -5,9 C -4,7 C 8,0 km/h (2 Bft)
08.12.2023 16:05 -4,7 C 90 % 1014,7 hPa 0,0 l/m 4,1 km/h (1 Bft) SO 138 -6,1 C -4,7 C 14,5 km/h (3 Bft)
08.12.2023 16:00 -4,7 C 90 % 1014,8 hPa 0,0 l/m 3,9 km/h (1 Bft) W-SW 245 -6,1 C -4,7 C 9,7 km/h (2 Bft)
08.12.2023 15:55 -4,7 C 90 % 1014,8 hPa 0,0 l/m 4,2 km/h (1 Bft) W 268 -6,1 C -4,7 C 12,9 km/h (3 Bft)
08.12.2023 15:50 -4,6 C 90 % 1014,7 hPa 0,0 l/m 5,2 km/h (1 Bft) SW 225 -6,0 C -4,6 C 16,1 km/h (3 Bft)
08.12.2023 15:45 -4,5 C 90 % 1014,8 hPa 0,0 l/m 3,3 km/h (1 Bft) W-SW 240 -5,9 C -4,5 C 9,7 km/h (2 Bft)
08.12.2023 15:40 -4,4 C 90 % 1014,8 hPa 0,0 l/m 2,9 km/h (1 Bft) S-SW 205 -5,8 C -4,4 C 8,0 km/h (2 Bft)
08.12.2023 15:35 -4,3 C 89 % 1014,7 hPa 0,0 l/m 2,3 km/h (1 Bft) S-SO 153 -5,8 C -4,3 C 4,8 km/h (1 Bft)
08.12.2023 15:30 -4,2 C 89 % 1014,8 hPa 0,0 l/m 2,6 km/h (1 Bft) S-SO 166 -5,7 C -4,2 C 9,7 km/h (2 Bft)
08.12.2023 15:25 -4,1 C 89 % 1014,7 hPa 0,0 l/m 1,4 km/h (1 Bft) O-SO 119 -5,6 C -4,1 C 3,2 km/h (1 Bft)
08.12.2023 15:20 -4,0 C 89 % 1014,5 hPa 0,0 l/m 2,1 km/h (1 Bft) SO 141 -5,5 C -4,0 C 6,4 km/h (2 Bft)
08.12.2023 15:15 -3,9 C 89 % 1014,6 hPa 0,0 l/m 1,4 km/h (1 Bft) S-SO 147 -5,4 C -3,9 C 4,8 km/h (1 Bft)
08.12.2023 15:10 -3,8 C 89 % 1014,5 hPa 0,0 l/m 2,2 km/h (1 Bft) S 189 -5,3 C -3,8 C 8,0 km/h (2 Bft)
08.12.2023 15:05 -3,7 C 89 % 1014,5 hPa 0,0 l/m 2,3 km/h (1 Bft) O 94 -5,2 C -3,7 C 4,8 km/h (1 Bft)
08.12.2023 15:00 -3,6 C 89 % 1014,6 hPa 0,0 l/m 2,2 km/h (1 Bft) S 190 -5,1 C -3,6 C 6,4 km/h (2 Bft)
08.12.2023 14:55 -3,5 C 89 % 1014,5 hPa 0,0 l/m 2,3 km/h (1 Bft) S 173 -5,0 C -3,5 C 4,8 km/h (1 Bft)
08.12.2023 14:50 -3,4 C 90 % 1014,5 hPa 0,0 l/m 2,2 km/h (1 Bft) S-SO 147 -4,8 C -3,4 C 4,8 km/h (1 Bft)
08.12.2023 14:45 -3,4 C 90 % 1014,4 hPa 0,0 l/m 1,9 km/h (1 Bft) SO 143 -4,8 C -3,4 C 4,8 km/h (1 Bft)
08.12.2023 14:40 -3,3 C 90 % 1014,4 hPa 0,0 l/m 1,4 km/h (1 Bft) S-SO 160 -4,7 C -3,3 C 3,2 km/h (1 Bft)
08.12.2023 14:35 -3,3 C 90 % 1014,4 hPa 0,0 l/m 1,9 km/h (1 Bft) S 175 -4,7 C -3,3 C 6,4 km/h (2 Bft)
08.12.2023 14:30 -3,2 C 90 % 1014,4 hPa 0,0 l/m 3,1 km/h (1 Bft) S-SO 160 -4,6 C -3,2 C 8,0 km/h (2 Bft)
08.12.2023 14:25 -3,3 C 90 % 1014,3 hPa 0,0 l/m 2,6 km/h (1 Bft) S 181 -4,7 C -3,3 C 6,4 km/h (2 Bft)
08.12.2023 14:20 -3,3 C 90 % 1014,3 hPa 0,0 l/m 2,4 km/h (1 Bft) S 184 -4,7 C -3,3 C 4,8 km/h (1 Bft)
08.12.2023 14:15 -3,3 C 90 % 1014,3 hPa 0,0 l/m 2,9 km/h (1 Bft) S 174 -4,7 C -3,3 C 6,4 km/h (2 Bft)
08.12.2023 14:10 -3,4 C 90 % 1014,4 hPa 0,0 l/m 2,9 km/h (1 Bft) S 178 -4,8 C -3,4 C 6,4 km/h (2 Bft)
08.12.2023 14:05 -3,4 C 90 % 1014,4 hPa 0,0 l/m 2,6 km/h (1 Bft) S-SO 157 -4,8 C -3,4 C 4,8 km/h (1 Bft)
08.12.2023 14:00 -3,3 C 90 % 1014,4 hPa 0,0 l/m 4,0 km/h (1 Bft) S-SO 161 -4,7 C -3,3 C 12,9 km/h (3 Bft)
08.12.2023 13:55 -3,3 C 91 % 1014,4 hPa 0,0 l/m 5,2 km/h (1 Bft) S-SO 158 -4,6 C -3,3 C 12,9 km/h (3 Bft)
08.12.2023 13:50 -3,3 C 91 % 1014,4 hPa 0,0 l/m 4,9 km/h (1 Bft) S 187 -4,6 C -3,3 C 9,7 km/h (2 Bft)
08.12.2023 13:45 -3,3 C 91 % 1014,4 hPa 0,0 l/m 6,2 km/h (2 Bft) SW 219 -4,6 C -3,3 C 16,1 km/h (3 Bft)
08.12.2023 13:40 -3,4 C 91 % 1014,3 hPa 0,0 l/m 6,0 km/h (2 Bft) S-SO 168 -4,7 C -3,4 C 16,1 km/h (3 Bft)
08.12.2023 13:35 -3,4 C 91 % 1014,2 hPa 0,0 l/m 4,3 km/h (1 Bft) S 180 -4,7 C -3,4 C 12,9 km/h (3 Bft)
08.12.2023 13:30 -3,4 C 91 % 1014,2 hPa 0,0 l/m 4,1 km/h (1 Bft) S-SO 148 -4,7 C -3,4 C 9,7 km/h (2 Bft)
08.12.2023 13:25 -3,4 C 92 % 1014,2 hPa 0,0 l/m 7,2 km/h (2 Bft) S-SW 198 -4,5 C -4,3 C 17,7 km/h (3 Bft)
08.12.2023 13:20 -3,6 C 92 % 1014,4 hPa 0,0 l/m 6,0 km/h (2 Bft) SO 136 -4,7 C -3,6 C 14,5 km/h (3 Bft)
08.12.2023 13:15 -3,7 C 92 % 1014,4 hPa 0,0 l/m 4,0 km/h (1 Bft) S 175 -4,8 C -3,7 C 9,7 km/h (2 Bft)
08.12.2023 13:10 -3,8 C 92 % 1014,4 hPa 0,0 l/m 4,3 km/h (1 Bft) SO 145 -4,9 C -3,8 C 11,3 km/h (2 Bft)
08.12.2023 13:05 -3,9 C 92 % 1014,4 hPa 0,0 l/m 7,5 km/h (2 Bft) SO 133 -5,0 C -5,2 C 17,7 km/h (3 Bft)
08.12.2023 13:00 -3,9 C 92 % 1014,4 hPa 0,0 l/m 6,3 km/h (2 Bft) S-SW 205 -5,0 C -3,9 C 17,7 km/h (3 Bft)
08.12.2023 12:55 -3,9 C 92 % 1014,5 hPa 0,0 l/m 7,6 km/h (2 Bft) S 175 -5,0 C -5,3 C 17,7 km/h (3 Bft)
08.12.2023 12:50 -4,0 C 93 % 1014,5 hPa 0,0 l/m 5,3 km/h (1 Bft) S-SW 203 -5,0 C -4,0 C 11,3 km/h (2 Bft)
08.12.2023 12:45 -4,1 C 93 % 1014,5 hPa 0,0 l/m 6,3 km/h (2 Bft) S-SW 196 -5,1 C -4,1 C 11,3 km/h (2 Bft)
08.12.2023 12:40 -4,1 C 93 % 1014,5 hPa 0,0 l/m 7,1 km/h (2 Bft) S-SW 195 -5,1 C -4,9 C 12,9 km/h (3 Bft)
08.12.2023 12:35 -4,1 C 93 % 1014,5 hPa 0,0 l/m 3,5 km/h (1 Bft) S-SW 209 -5,1 C -4,1 C 9,7 km/h (2 Bft)
08.12.2023 12:30 -4,1 C 93 % 1014,6 hPa 0,0 l/m 4,2 km/h (1 Bft) S-SO 159 -5,1 C -4,1 C 14,5 km/h (3 Bft)
08.12.2023 12:25 -4,2 C 93 % 1014,7 hPa 0,0 l/m 6,0 km/h (2 Bft) S 182 -5,2 C -4,2 C 12,9 km/h (3 Bft)
08.12.2023 12:20 -4,3 C 93 % 1014,5 hPa 0,0 l/m 4,2 km/h (1 Bft) S-SW 197 -5,3 C -4,3 C 9,7 km/h (2 Bft)
08.12.2023 12:15 -4,4 C 93 % 1014,7 hPa 0,0 l/m 4,9 km/h (1 Bft) S 187 -5,4 C -4,4 C 11,3 km/h (2 Bft)
08.12.2023 12:10 -4,4 C 93 % 1014,7 hPa 0,0 l/m 3,4 km/h (1 Bft) S-SW 206 -5,4 C -4,4 C 11,3 km/h (2 Bft)
08.12.2023 12:05 -4,5 C 93 % 1014,9 hPa 0,0 l/m 3,2 km/h (1 Bft) NW 322 -5,5 C -4,5 C 9,7 km/h (2 Bft)
08.12.2023 12:00 -4,6 C 93 % 1014,9 hPa 0,0 l/m 1,4 km/h (1 Bft) W-SW 242 -5,6 C -4,6 C 4,8 km/h (1 Bft)
08.12.2023 11:55 -4,6 C 93 % 1015,1 hPa 0,0 l/m 1,9 km/h (1 Bft) W-SW 257 -5,6 C -4,6 C 6,4 km/h (2 Bft)
08.12.2023 11:50 -4,5 C 93 % 1015,1 hPa 0,0 l/m 1,2 km/h (1 Bft) SW 232 -5,5 C -4,5 C 4,8 km/h (1 Bft)
08.12.2023 11:45 -4,4 C 93 % 1015,1 hPa 0,0 l/m 1,2 km/h (1 Bft) SW 217 -5,4 C -4,4 C 4,8 km/h (1 Bft)
08.12.2023 11:40 -4,3 C 93 % 1015,1 hPa 0,0 l/m 1,7 km/h (1 Bft) SW 223 -5,3 C -4,3 C 4,8 km/h (1 Bft)
08.12.2023 11:35 -4,2 C 93 % 1015,1 hPa 0,0 l/m 2,7 km/h (1 Bft) S-SW 201 -5,2 C -4,2 C 8,0 km/h (2 Bft)
08.12.2023 11:30 -4,2 C 93 % 1015,2 hPa 0,0 l/m 1,3 km/h (1 Bft) O-NO 61 -5,2 C -4,2 C 4,8 km/h (1 Bft)
08.12.2023 11:25 -4,1 C 93 % 1015,2 hPa 0,0 l/m 1,9 km/h (1 Bft) S-SW 207 -5,1 C -4,1 C 8,0 km/h (2 Bft)
08.12.2023 11:20 -4,1 C 94 % 1015,0 hPa 0,0 l/m 2,3 km/h (1 Bft) O-SO 102 -4,9 C -4,1 C 9,7 km/h (2 Bft)
08.12.2023 11:15 -4,1 C 94 % 1015,1 hPa 0,0 l/m 3,5 km/h (1 Bft) W-NW 289 -4,9 C -4,1 C 12,9 km/h (3 Bft)
08.12.2023 11:10 -4,1 C 94 % 1015,2 hPa 0,0 l/m 3,7 km/h (1 Bft) SW 234 -4,9 C -4,1 C 12,9 km/h (3 Bft)
08.12.2023 11:05 -4,2 C 94 % 1015,1 hPa 0,0 l/m 3,2 km/h (1 Bft) S 178 -5,0 C -4,2 C 16,1 km/h (3 Bft)
08.12.2023 11:00 -4,3 C 94 % 1015,0 hPa 0,0 l/m 8,0 km/h (2 Bft) S-SW 192 -5,1 C -6,2 C 16,1 km/h (3 Bft)
08.12.2023 10:55 -4,3 C 94 % 1015,0 hPa 0,0 l/m 9,8 km/h (2 Bft) S-SW 200 -5,1 C -8,0 C 22,5 km/h (4 Bft)
08.12.2023 10:50 -4,2 C 94 % 1015,0 hPa 0,0 l/m 8,7 km/h (2 Bft) S 185 -5,0 C -6,8 C 22,5 km/h (4 Bft)
08.12.2023 10:45 -4,3 C 94 % 1015,2 hPa 0,0 l/m 6,4 km/h (2 Bft) W 259 -5,1 C -4,2 C 22,5 km/h (4 Bft)
08.12.2023 10:40 -4,3 C 94 % 1015,2 hPa 0,0 l/m 8,6 km/h (2 Bft) S-SO 163 -5,1 C -6,8 C 19,3 km/h (3 Bft)
08.12.2023 10:35 -4,4 C 94 % 1015,2 hPa 0,0 l/m 9,9 km/h (2 Bft) S-SO 159 -5,2 C -8,2 C 20,9 km/h (4 Bft)
08.12.2023 10:30 -4,4 C 94 % 1015,3 hPa 0,0 l/m 8,7 km/h (2 Bft) S-SW 211 -5,2 C -7,0 C 16,1 km/h (3 Bft)
08.12.2023 10:25 -4,4 C 94 % 1015,4 hPa 0,0 l/m 9,3 km/h (2 Bft) S-SO 160 -5,2 C -7,6 C 20,9 km/h (4 Bft)
08.12.2023 10:20 -4,4 C 95 % 1015,5 hPa 0,0 l/m 6,3 km/h (2 Bft) O-SO 122 -5,1 C -4,4 C 17,7 km/h (3 Bft)
08.12.2023 10:15 -4,4 C 95 % 1015,6 hPa 0,0 l/m 9,4 km/h (2 Bft) S 183 -5,1 C -7,7 C 20,9 km/h (4 Bft)
08.12.2023 10:10 -4,4 C 95 % 1015,5 hPa 0,0 l/m 6,8 km/h (2 Bft) S 184 -5,1 C -4,9 C 16,1 km/h (3 Bft)
08.12.2023 10:05 -4,4 C 95 % 1015,6 hPa 0,0 l/m 6,2 km/h (2 Bft) S 190 -5,1 C -4,4 C 12,9 km/h (3 Bft)
08.12.2023 10:00 -4,5 C 95 % 1015,5 hPa 0,0 l/m 5,1 km/h (1 Bft) S-SO 163 -5,2 C -4,5 C 12,9 km/h (3 Bft)
08.12.2023 09:55 -4,5 C 95 % 1015,6 hPa 0,0 l/m 6,0 km/h (2 Bft) SO 143 -5,2 C -4,5 C 11,3 km/h (2 Bft)
08.12.2023 09:50 -4,6 C 95 % 1015,6 hPa 0,0 l/m 5,0 km/h (1 Bft) S 175 -5,3 C -4,6 C 14,5 km/h (3 Bft)
08.12.2023 09:45 -4,7 C 95 % 1015,6 hPa 0,0 l/m 4,4 km/h (1 Bft) W-NW 297 -5,4 C -4,7 C 9,7 km/h (2 Bft)
08.12.2023 09:40 -4,7 C 95 % 1015,5 hPa 0,0 l/m 2,8 km/h (1 Bft) W-SW 246 -5,4 C -4,7 C 9,7 km/h (2 Bft)
08.12.2023 09:35 -4,8 C 95 % 1015,3 hPa 0,0 l/m 2,4 km/h (1 Bft) SW 220 -5,5 C -4,8 C 9,7 km/h (2 Bft)
08.12.2023 09:30 -4,7 C 95 % 1015,3 hPa 0,0 l/m 2,9 km/h (1 Bft) S-SW 200 -5,4 C -4,7 C 11,3 km/h (2 Bft)
_ Min-Zeit 07:45 01:20 13:25 - 18:00 - - 03:00 00:25 18:00
Minimum _ -5,6 C 89 % 1014,2 hPa - 0,0 km/h (0 Bft) - - -6,4 C -8,4 C 0,0 km/h (0 Bft)
_ Max-Zeit 18:00 08:50 18:15 17:10 00:25 - - 18:00 18:00 06:35
Maximum _ -2,6 C 95 % 1022,1 hPa 0,2 l/m 10,1 km/h
SW (2 Bft)
- - -3,4 C -2,6 C 24,1 km/h
S (4 Bft)
Durchschnitt _ -4,3 C 93 % 1017,4 hPa #0,4 l/m 4,3 km/h (1 Bft) S - -5,3 C -4,7 C 10,2 km/h (2 Bft)